CheckWX is a tool to help pilots better visualize weather data.  It is not intended as a substitute for an official pre-flight weather briefing.

15:58:27 UTC

EVVA METAR
Ventspils International Airport
Ventspils, Latvia
Current

38 mins ago

EVVA 261520Z AUTO 22020G32KT 9999 OVC012 10/09 Q1000
Observed
May-26 @ 15:20 UTC
Wind
  • 220° at 20 KTS
  • Gusting to 32 KTS
Visibility
10,000+ meters
Flight Rules
MVFR
Cloud Levels
  • Overcast at 1,200' AGL
Temperature
10°C / 50°F
Dewpoint
C / 48°F
Humidity
94%
Altimeter
29.53" Hg
Pressure
999.92 hPa
Previous

1 hour ago

EVVA 261450Z AUTO 22018G32KT 9999 OVC012 10/09 Q1000
Observed
May-26 @ 14:50 UTC
Wind
  • 220° at 18 KTS
  • Gusting to 32 KTS
Visibility
10,000+ meters
Flight Rules
MVFR
Cloud Levels
  • Overcast at 1,200' AGL
Temperature
10°C / 50°F
Dewpoint
C / 48°F
Humidity
94%
Altimeter
29.53" Hg
Pressure
999.92 hPa
Previous

2 hours ago

EVVA 261420Z AUTO 22020G30KT 9999 OVC013 11/09 Q1001
Observed
May-26 @ 14:20 UTC
Wind
  • 220° at 20 KTS
  • Gusting to 30 KTS
Visibility
10,000+ meters
Flight Rules
MVFR
Cloud Levels
  • Overcast at 1,300' AGL
Temperature
11°C / 52°F
Dewpoint
C / 48°F
Humidity
88%
Altimeter
29.56" Hg
Pressure
1000.92 hPa